createdAt,value
2022-11-22T01:20:19.147Z,18.43
2022-11-22T01:22:45.765Z,17.57
2022-11-22T01:25:12.360Z,19.90
2022-11-22T01:27:38.975Z,17.97
2022-11-22T01:30:06.239Z,19.83
2022-11-22T01:32:32.834Z,21.87
2022-11-22T01:34:59.428Z,20.60
2022-11-22T01:37:26.019Z,19.27
2022-11-22T01:39:52.620Z,21.57
2022-11-22T01:42:21.330Z,17.40
2022-11-22T01:44:48.417Z,18.97
2022-11-22T01:47:20.041Z,19.60
2022-11-22T01:49:52.440Z,20.43
2022-11-22T01:52:21.395Z,19.23
2022-11-22T01:54:53.366Z,18.60
2022-11-22T01:57:24.035Z,18.70
2022-11-22T02:00:03.950Z,18.40
2022-11-22T02:02:33.546Z,18.50
2022-11-22T02:05:03.209Z,19.80
2022-11-22T02:07:53.584Z,17.83
2022-11-22T02:10:23.415Z,16.40
2022-11-22T02:12:51.983Z,17.53
2022-11-22T02:15:18.936Z,16.83
2022-11-22T02:17:45.560Z,18.40
2022-11-22T02:20:12.564Z,18.63
2022-11-22T02:22:56.001Z,17.97
2022-11-22T02:25:47.523Z,17.40
2022-11-22T02:28:14.333Z,16.67
2022-11-22T02:30:41.541Z,18.77
2022-11-22T02:33:09.271Z,18.03
2022-11-22T02:35:35.939Z,16.77
2022-11-22T02:38:09.009Z,16.30
2022-11-22T02:40:45.628Z,17.03
2022-11-22T02:43:16.057Z,19.17
2022-11-22T02:45:42.788Z,19.00
2022-11-22T02:48:12.307Z,17.80
2022-11-22T02:50:39.496Z,19.33
2022-11-22T02:53:06.960Z,18.37
2022-11-22T02:55:33.622Z,20.03
2022-11-22T02:58:00.275Z,19.70
2022-11-22T03:00:26.879Z,19.73
2022-11-22T03:02:53.571Z,19.27
2022-11-22T03:05:20.191Z,21.50
2022-11-22T03:07:46.855Z,18.53
2022-11-22T03:10:14.196Z,21.93
2022-11-22T03:12:41.621Z,19.33
2022-11-22T03:15:16.281Z,19.23
2022-11-22T03:17:43.139Z,20.03
2022-11-22T03:20:10.011Z,19.83
2022-11-22T03:22:36.607Z,19.83
2022-11-22T03:25:03.321Z,20.67
2022-11-22T03:44:10.036Z,20.87
2022-11-22T03:46:36.862Z,19.47
2022-11-22T03:49:03.577Z,21.67
2022-11-22T03:55:43.445Z,18.20
2022-11-22T03:58:10.259Z,16.73
2022-11-22T04:00:37.046Z,21.07
2022-11-22T04:03:03.721Z,19.80
2022-11-22T04:05:30.464Z,18.20
2022-11-22T04:07:59.907Z,18.83
2022-11-22T04:10:26.944Z,19.90
2022-11-22T04:12:58.325Z,17.33
2022-11-22T04:15:26.091Z,19.07
2022-11-22T04:17:53.025Z,20.37
2022-11-22T04:20:48.704Z,19.73
2022-11-22T04:23:21.438Z,19.30
2022-11-22T04:25:53.746Z,17.93
2022-11-22T04:28:35.249Z,19.10
2022-11-22T04:31:29.185Z,18.20
2022-11-22T04:34:00.197Z,18.53
2022-11-22T04:36:32.619Z,19.43
2022-11-22T04:42:08.416Z,16.67
2022-11-22T04:44:51.061Z,15.90
2022-11-22T04:47:38.136Z,16.43
2022-11-22T04:50:29.032Z,18.13
2022-11-22T04:52:57.934Z,17.47
2022-11-22T04:55:30.181Z,16.17
2022-11-22T04:58:00.147Z,16.33
2022-11-22T05:00:30.589Z,16.73
2022-11-22T05:02:59.124Z,18.20
2022-11-22T05:05:26.988Z,17.33
2022-11-22T05:07:54.465Z,18.60
2022-11-22T05:10:26.479Z,18.03
2022-11-22T05:12:54.604Z,17.43
2022-11-22T05:15:31.434Z,16.57
2022-11-22T05:18:02.326Z,17.53
2022-11-22T06:20:13.260Z,16.87
2022-11-22T06:22:39.909Z,15.70
2022-11-22T06:25:07.400Z,15.43
2022-11-22T06:27:33.998Z,16.20
2022-11-22T06:30:00.572Z,17.63
2022-11-22T06:32:27.177Z,15.53
2022-11-22T06:34:53.744Z,17.37
2022-11-22T06:37:20.313Z,17.07
2022-11-22T06:39:46.902Z,18.93
2022-11-22T06:42:13.596Z,18.17
2022-11-22T06:44:40.240Z,19.80
2022-11-22T06:47:07.140Z,17.83
2022-11-22T06:49:33.761Z,16.63
2022-11-22T06:52:00.441Z,16.80
2022-11-22T06:54:27.066Z,19.57
2022-11-22T06:56:53.693Z,19.23
2022-11-22T06:59:20.466Z,18.93
2022-11-22T07:01:47.343Z,16.90
2022-11-22T07:04:14.280Z,17.43
2022-11-22T07:06:41.034Z,16.23
2022-11-22T07:09:09.782Z,14.50
2022-11-22T07:11:37.154Z,15.20
2022-11-22T07:14:08.294Z,16.77
2022-11-22T07:16:37.489Z,15.90
2022-11-22T07:19:04.943Z,16.73
2022-11-22T07:21:32.518Z,15.70
2022-11-22T07:23:59.196Z,17.17
2022-11-22T07:26:26.723Z,15.67
2022-11-22T07:28:53.503Z,16.63
2022-11-22T07:31:20.389Z,15.67
2022-11-22T07:33:47.287Z,15.90
2022-11-22T07:36:19.193Z,16.23
2022-11-22T07:38:47.896Z,13.27
2022-11-22T07:41:15.217Z,13.97
2022-11-22T07:43:42.678Z,14.70
2022-11-22T07:46:33.491Z,14.57
2022-11-22T07:49:01.928Z,14.23
2022-11-22T07:51:29.151Z,13.97
2022-11-22T07:53:56.638Z,13.63
2022-11-22T07:56:23.595Z,14.97
2022-11-22T07:58:50.732Z,16.60
2022-11-22T08:01:21.681Z,15.77
2022-11-22T08:03:48.747Z,15.37
2022-11-22T08:06:17.074Z,15.80
2022-11-22T08:08:44.460Z,14.17
2022-11-22T08:11:12.034Z,14.50
2022-11-22T08:13:39.241Z,15.90
2022-11-22T08:16:09.098Z,17.13
2022-11-22T08:18:37.932Z,16.13
2022-11-22T08:21:12.583Z,16.20
2022-11-22T08:23:40.649Z,17.30
2022-11-22T08:26:08.898Z,16.37
2022-11-22T08:28:36.162Z,16.87
2022-11-22T08:31:06.040Z,14.17
2022-11-22T08:33:32.826Z,17.50
2022-11-22T08:35:59.866Z,14.67
2022-11-22T08:38:27.328Z,15.83
2022-11-22T08:40:56.066Z,13.27
2022-11-22T08:43:26.670Z,14.87
2022-11-22T08:45:55.831Z,13.83
2022-11-22T08:48:22.788Z,14.23
2022-11-22T08:50:57.668Z,15.03
2022-11-22T08:53:25.571Z,13.57
2022-11-22T08:55:52.300Z,15.83
2022-11-22T08:58:19.023Z,16.67
2022-11-22T09:00:45.666Z,17.30
2022-11-22T09:03:12.369Z,16.97
2022-11-22T09:08:25.813Z,17.97
2022-11-22T09:10:54.989Z,15.27
2022-11-22T09:13:24.175Z,14.60
2022-11-22T09:15:51.012Z,18.43
2022-11-22T09:18:19.014Z,16.57
2022-11-22T09:20:49.789Z,14.93
2022-11-22T09:23:16.999Z,18.87
2022-11-22T09:25:44.940Z,14.70
2022-11-22T09:28:11.678Z,16.33
2022-11-22T09:30:38.235Z,17.07
2022-11-22T09:33:04.767Z,19.90
2022-11-22T09:35:31.395Z,18.57
2022-11-22T09:37:58.237Z,16.77
2022-11-22T09:40:24.873Z,18.07
2022-11-22T09:42:57.407Z,15.97
2022-11-22T09:45:36.585Z,14.73
2022-11-22T09:48:24.804Z,16.67
2022-11-22T09:51:06.733Z,15.50
2022-11-22T09:53:38.540Z,16.43
2022-11-22T09:56:11.356Z,19.40
2022-11-22T09:58:51.579Z,38.00
2022-11-22T10:01:28.115Z,20.67
2022-11-22T10:04:01.486Z,20.17
2022-11-22T10:06:32.152Z,16.53
2022-11-22T10:09:22.880Z,16.67
2022-11-22T10:11:55.017Z,14.67
2022-11-22T10:14:30.582Z,15.23
2022-11-22T10:17:32.509Z,14.83
2022-11-22T10:20:06.732Z,15.43
2022-11-22T10:22:47.482Z,15.17
2022-11-22T10:25:18.073Z,15.53
2022-11-22T10:27:49.132Z,13.17
2022-11-22T10:30:18.247Z,14.13
2022-11-22T10:32:56.508Z,14.80
2022-11-22T10:35:35.723Z,16.23
2022-11-22T10:41:31.331Z,14.73
2022-11-22T10:44:21.365Z,13.17
2022-11-22T10:46:57.326Z,15.27
2022-11-22T10:49:34.631Z,14.40
2022-11-22T10:52:28.963Z,14.80
2022-11-22T10:55:19.346Z,15.90
2022-11-22T10:57:59.948Z,17.83
2022-11-22T11:00:29.152Z,19.30
2022-11-22T11:03:01.923Z,16.40
2022-11-22T11:05:37.286Z,16.80
2022-11-22T11:08:36.809Z,16.37
2022-11-22T11:10:51.471Z,19.10
2022-11-22T11:13:24.588Z,20.30
2022-11-22T11:15:56.254Z,19.90
2022-11-22T11:18:49.230Z,20.30
2022-11-22T11:21:15.974Z,19.60
2022-11-22T11:23:42.678Z,19.23
2022-11-22T11:26:27.668Z,20.20
2022-11-22T11:29:16.004Z,18.60
2022-11-22T11:31:44.742Z,19.10
2022-11-22T11:34:29.931Z,22.13
2022-11-22T11:36:58.125Z,20.83
2022-11-22T11:39:32.241Z,20.43
2022-11-22T11:41:59.692Z,20.83
2022-11-22T11:44:37.480Z,20.33
2022-11-22T11:47:04.926Z,19.17
2022-11-22T11:49:33.672Z,18.50
2022-11-22T11:52:28.719Z,17.90
2022-11-22T11:55:00.818Z,18.13
2022-11-22T11:57:29.716Z,18.37
2022-11-22T11:59:59.199Z,18.37
2022-11-22T12:02:39.823Z,16.93
2022-11-22T12:05:24.682Z,18.00
2022-11-22T12:07:51.436Z,16.80
2022-11-22T12:10:56.477Z,17.23
2022-11-22T12:14:04.601Z,16.03
2022-11-22T12:16:37.832Z,17.53
2022-11-22T12:19:34.974Z,16.17
2022-11-22T12:22:48.305Z,14.53
2022-11-22T12:25:35.381Z,16.23
2022-11-22T12:28:12.230Z,15.50
2022-11-22T12:30:41.262Z,16.70
2022-11-22T12:33:10.633Z,14.90
2022-11-22T12:35:43.281Z,15.23
2022-11-22T12:38:30.290Z,14.87
2022-11-22T12:41:00.185Z,14.87
2022-11-22T12:43:30.835Z,14.53
2022-11-22T12:46:06.368Z,15.03
2022-11-22T12:48:47.220Z,15.30
2022-11-22T12:51:21.429Z,15.43
2022-11-22T12:53:48.461Z,16.37
2022-11-22T12:56:22.779Z,15.70
2022-11-22T12:58:59.868Z,14.20
2022-11-22T13:01:34.723Z,15.97
2022-11-22T13:04:10.616Z,18.70
2022-11-22T13:07:06.603Z,18.50
2022-11-22T13:09:35.860Z,26.13
2022-11-22T13:12:17.851Z,15.37
2022-11-22T13:14:55.113Z,16.13
2022-11-22T13:17:26.258Z,23.47
2022-11-22T13:19:57.245Z,16.20
2022-11-22T13:22:42.467Z,14.13
2022-11-22T13:25:27.636Z,14.60
2022-11-22T13:27:54.892Z,16.87
2022-11-22T13:30:23.791Z,15.03
2022-11-22T13:32:53.015Z,14.83
2022-11-22T13:35:32.187Z,16.73
2022-11-22T13:38:02.674Z,26.10
2022-11-22T13:40:42.139Z,17.20
2022-11-22T13:43:15.534Z,18.60
2022-11-22T13:45:50.030Z,15.37
2022-11-22T13:48:41.403Z,14.43
2022-11-22T13:51:13.745Z,15.47
2022-11-22T13:53:44.987Z,14.23
2022-11-22T13:56:20.438Z,16.67
2022-11-22T13:58:57.427Z,14.57
2022-11-22T14:01:33.936Z,14.43
2022-11-22T14:04:16.015Z,14.00
2022-11-22T14:06:49.902Z,18.03
2022-11-22T14:09:54.307Z,21.30
2022-11-22T14:12:59.880Z,23.00
2022-11-22T14:15:51.181Z,22.93
2022-11-22T14:18:26.439Z,22.93
2022-11-22T14:21:09.017Z,23.53
2022-11-22T14:24:10.000Z,24.63
2022-11-22T14:26:55.360Z,25.60
2022-11-22T14:29:37.718Z,26.33
2022-11-22T14:32:21.978Z,25.60
2022-11-22T14:35:22.368Z,23.80
2022-11-22T14:37:57.409Z,22.30
2022-11-22T14:40:38.395Z,21.97
2022-11-22T14:43:19.341Z,21.57
2022-11-22T14:45:50.362Z,22.23
2022-11-22T14:48:19.657Z,22.40
2022-11-22T14:50:59.862Z,21.50
2022-11-22T14:53:39.373Z,24.33
2022-11-22T14:56:12.746Z,20.27
2022-11-22T14:58:42.881Z,21.83
2022-11-22T15:01:31.270Z,21.20
2022-11-22T15:09:21.756Z,21.83
2022-11-22T15:09:23.227Z,21.50
2022-11-22T15:10:39.444Z,19.70
2022-11-22T15:13:30.543Z,20.23
2022-11-22T15:59:16.600Z,16.57
2022-11-22T16:01:48.006Z,14.83
2022-11-22T16:04:39.310Z,14.53
2022-11-22T16:10:27.732Z,15.27
2022-11-22T16:17:37.922Z,17.27
2022-11-22T16:20:26.350Z,17.93
2022-11-22T16:23:03.941Z,17.83
2022-11-22T16:25:37.418Z,18.70
